createdAt,value
2018-03-07T00:01:18.996Z,81.71
2018-03-07T00:04:22.154Z,81.53
2018-03-07T00:07:25.408Z,81.27
2018-03-07T00:10:28.673Z,81.76
2018-03-07T00:13:31.937Z,81.58
2018-03-07T00:16:35.212Z,81.53
2018-03-07T00:19:38.430Z,81.73
2018-03-07T00:22:41.705Z,81.47
2018-03-07T00:25:44.984Z,81.30
2018-03-07T00:28:48.172Z,80.89
2018-03-07T00:31:51.466Z,81.36
2018-03-07T00:34:54.668Z,80.87
2018-03-07T00:37:57.941Z,80.66
2018-03-07T00:41:01.181Z,80.70
2018-03-07T00:44:05.054Z,79.75
2018-03-07T00:47:08.618Z,80.13
2018-03-07T00:50:11.924Z,79.83
2018-03-07T00:53:15.276Z,79.81
2018-03-07T00:56:18.505Z,79.95
2018-03-07T00:59:21.794Z,80.05
2018-03-07T01:02:24.934Z,80.24
2018-03-07T01:05:28.801Z,79.89
2018-03-07T01:08:32.094Z,79.63
2018-03-07T01:11:35.559Z,79.21
2018-03-07T01:14:40.497Z,79.04
2018-03-07T01:17:43.709Z,78.91
2018-03-07T01:20:46.945Z,78.73
2018-03-07T01:23:50.245Z,79.48
2018-03-07T01:26:53.788Z,79.07
2018-03-07T01:29:57.108Z,79.14
2018-03-07T01:33:00.325Z,78.43
2018-03-07T01:36:03.842Z,79.12
2018-03-07T01:39:07.137Z,79.54
2018-03-07T01:42:10.953Z,79.68
2018-03-07T01:45:14.283Z,79.97
2018-03-07T01:48:17.701Z,79.83
2018-03-07T01:51:21.397Z,79.37
2018-03-07T01:54:24.576Z,80.70
2018-03-07T01:57:27.840Z,80.61
2018-03-07T02:00:46.919Z,81.46
2018-03-07T02:04:14.399Z,82.12
2018-03-07T02:07:37.818Z,82.33
2018-03-07T02:11:00.244Z,82.24
2018-03-07T02:14:08.317Z,82.40
2018-03-07T02:17:26.111Z,82.40
2018-03-07T02:20:51.468Z,82.00
2018-03-07T02:27:50.411Z,81.83
2018-03-07T02:31:24.375Z,81.78
2018-03-07T02:34:32.040Z,80.97
2018-03-07T02:37:46.934Z,81.78
2018-03-07T02:41:03.269Z,81.47
2018-03-07T02:44:14.931Z,81.43
2018-03-07T02:47:38.563Z,81.28
2018-03-07T02:50:53.987Z,81.70
2018-03-07T02:54:14.892Z,81.20
2018-03-07T02:57:18.166Z,81.37
2018-03-07T03:00:21.771Z,80.83
2018-03-07T03:03:25.034Z,81.34
2018-03-07T03:06:28.174Z,81.98
2018-03-07T03:09:31.603Z,82.52
2018-03-07T03:12:34.795Z,82.59
2018-03-07T03:15:38.109Z,82.42
2018-03-07T03:18:41.413Z,82.74
2018-03-07T03:21:44.709Z,82.81
2018-03-07T03:24:47.912Z,83.07
2018-03-07T03:27:51.221Z,83.24
2018-03-07T03:30:54.499Z,82.70
2018-03-07T03:33:57.878Z,83.39
2018-03-07T03:37:01.001Z,84.98
2018-03-07T03:40:04.324Z,85.22
2018-03-07T03:43:07.537Z,86.23
2018-03-07T03:46:10.731Z,86.24
2018-03-07T03:49:13.985Z,86.77
2018-03-07T03:52:17.194Z,86.80
2018-03-07T03:55:20.422Z,87.11
2018-03-07T03:58:23.585Z,86.94
2018-03-07T04:01:26.804Z,87.33
2018-03-07T04:04:30.045Z,87.55
2018-03-07T04:07:33.438Z,87.72
2018-03-07T04:10:36.760Z,87.26
2018-03-07T04:13:40.003Z,87.69
2018-03-07T04:16:43.260Z,87.48
2018-03-07T04:19:46.551Z,87.79
2018-03-07T04:22:49.951Z,87.47
2018-03-07T04:25:53.185Z,87.59
2018-03-07T04:28:56.372Z,87.72
2018-03-07T04:31:59.660Z,87.39
2018-03-07T04:35:02.961Z,87.12
2018-03-07T04:38:06.223Z,87.26
2018-03-07T04:41:09.578Z,87.73
2018-03-07T04:44:12.814Z,88.32
2018-03-07T04:47:16.040Z,88.35
2018-03-07T04:50:19.311Z,88.29
2018-03-07T04:53:22.638Z,88.37
2018-03-07T04:56:25.909Z,88.26
2018-03-07T04:59:29.207Z,88.50
2018-03-07T05:02:32.514Z,88.40
2018-03-07T05:05:35.762Z,88.24
2018-03-07T05:08:38.992Z,87.61
2018-03-07T05:11:42.286Z,88.11
2018-03-07T05:14:45.542Z,88.04
2018-03-07T05:17:48.879Z,87.78
2018-03-07T05:20:52.086Z,87.58
2018-03-07T05:23:55.383Z,87.72
2018-03-07T05:26:58.678Z,87.51
2018-03-07T05:30:01.998Z,86.91
2018-03-07T05:33:05.207Z,87.37
2018-03-07T05:36:08.440Z,87.36
2018-03-07T05:39:11.663Z,87.11
2018-03-07T05:42:14.957Z,87.09
2018-03-07T05:45:18.245Z,86.89
2018-03-07T05:48:21.609Z,86.79
2018-03-07T05:51:24.861Z,86.78
2018-03-07T05:54:29.223Z,86.59
2018-03-07T05:57:32.509Z,86.83
2018-03-07T06:00:36.237Z,86.98
2018-03-07T06:03:39.534Z,87.06
2018-03-07T06:06:42.848Z,86.93
2018-03-07T06:09:46.049Z,86.48
2018-03-07T06:12:49.441Z,86.48
2018-03-07T06:15:52.690Z,86.30
2018-03-07T06:18:55.938Z,86.23
2018-03-07T06:21:59.085Z,85.96
2018-03-07T06:25:02.283Z,85.03
2018-03-07T06:28:05.490Z,85.87
2018-03-07T06:31:08.758Z,86.11
2018-03-07T06:34:12.047Z,85.71
2018-03-07T06:37:15.339Z,85.65
2018-03-07T06:40:18.639Z,85.83
2018-03-07T06:43:22.004Z,85.50
2018-03-07T06:46:25.282Z,85.66
2018-03-07T06:49:28.477Z,85.84
2018-03-07T06:52:31.742Z,85.49
2018-03-07T06:55:34.998Z,85.57
2018-03-07T06:58:38.454Z,85.47
2018-03-07T07:01:41.618Z,85.44
2018-03-07T07:04:44.860Z,85.25
2018-03-07T07:07:48.135Z,84.94
2018-03-07T07:10:51.645Z,85.09
2018-03-07T07:13:54.835Z,85.21
2018-03-07T07:16:58.147Z,84.94
2018-03-07T07:20:01.343Z,84.43
2018-03-07T07:23:04.583Z,84.14
2018-03-07T07:26:07.819Z,84.40
2018-03-07T07:29:11.032Z,84.24
2018-03-07T07:32:14.461Z,84.05
2018-03-07T07:35:17.694Z,83.64
2018-03-07T07:38:20.972Z,83.64
2018-03-07T07:41:24.293Z,83.51
2018-03-07T07:44:27.578Z,83.10
2018-03-07T07:47:30.894Z,82.80
2018-03-07T07:50:34.189Z,82.45
2018-03-07T07:53:37.385Z,82.43
2018-03-07T07:56:40.658Z,82.15
2018-03-07T07:59:43.905Z,82.29
2018-03-07T08:02:47.317Z,81.93
2018-03-07T08:05:50.579Z,80.86
2018-03-07T08:08:53.778Z,81.33
2018-03-07T08:11:57.730Z,80.46
2018-03-07T08:15:00.962Z,80.22
2018-03-07T08:18:04.307Z,79.69
2018-03-07T08:21:07.494Z,80.14
2018-03-07T08:24:10.747Z,79.97
2018-03-07T08:27:14.043Z,79.79
2018-03-07T08:30:17.346Z,78.40
2018-03-07T08:33:20.746Z,79.31
2018-03-07T08:36:24.045Z,78.01
2018-03-07T08:39:27.341Z,76.93
2018-03-07T08:42:30.634Z,76.87
2018-03-07T08:45:33.883Z,75.86
2018-03-07T08:48:37.141Z,75.46
2018-03-07T08:51:40.935Z,75.83
2018-03-07T08:54:44.251Z,75.12
2018-03-07T08:57:47.562Z,74.75
2018-03-07T09:00:50.851Z,74.23
2018-03-07T09:03:54.129Z,74.83
2018-03-07T09:06:57.434Z,74.67
2018-03-07T09:10:00.637Z,74.47
2018-03-07T09:13:03.972Z,74.68
2018-03-07T09:16:07.226Z,74.93
2018-03-07T09:19:11.097Z,74.88
2018-03-07T09:22:14.334Z,75.12
2018-03-07T09:25:17.657Z,75.35
2018-03-07T09:28:20.859Z,75.51
2018-03-07T09:31:24.026Z,74.27
2018-03-07T09:34:27.232Z,74.39
2018-03-07T09:37:30.614Z,74.49
2018-03-07T09:40:33.812Z,74.09
2018-03-07T09:43:37.146Z,73.04
2018-03-07T09:46:40.405Z,72.38
2018-03-07T09:49:43.610Z,72.55
2018-03-07T09:52:46.896Z,71.99
2018-03-07T09:55:50.224Z,70.38
2018-03-07T09:58:53.495Z,70.79
2018-03-07T10:01:56.726Z,68.68
2018-03-07T10:04:59.902Z,68.44
2018-03-07T10:08:03.181Z,67.10
2018-03-07T10:11:06.481Z,63.37
2018-03-07T10:14:09.855Z,63.78
2018-03-07T10:17:13.218Z,63.83
2018-03-07T10:20:16.420Z,64.28
2018-03-07T10:23:19.679Z,64.56
2018-03-07T10:26:22.970Z,63.28
2018-03-07T10:29:26.292Z,63.29
2018-03-07T10:32:29.624Z,63.15
2018-03-07T10:35:33.331Z,63.91
2018-03-07T10:38:36.574Z,61.78
2018-03-07T10:41:39.801Z,63.00
2018-03-07T10:44:43.078Z,62.49
2018-03-07T10:47:46.354Z,61.54
2018-03-07T10:50:49.858Z,60.38
2018-03-07T10:53:53.104Z,59.40
2018-03-07T10:56:56.326Z,59.01
2018-03-07T10:59:59.495Z,58.08
2018-03-07T11:03:02.801Z,57.40
2018-03-07T11:06:06.057Z,55.51
2018-03-07T11:09:09.338Z,56.97
2018-03-07T11:12:12.663Z,56.71
2018-03-07T11:15:15.950Z,56.09
2018-03-07T11:18:19.277Z,55.65
2018-03-07T11:21:22.562Z,55.23
2018-03-07T11:24:25.845Z,55.72
2018-03-07T11:27:29.151Z,55.33
2018-03-07T11:30:32.370Z,55.85
2018-03-07T11:33:35.728Z,54.21
2018-03-07T11:36:38.930Z,53.18
2018-03-07T11:39:42.809Z,51.83
2018-03-07T11:42:46.123Z,51.01
2018-03-07T11:45:49.330Z,50.35
2018-03-07T11:48:52.616Z,49.42
2018-03-07T11:51:55.919Z,49.19
2018-03-07T11:54:59.121Z,48.29
2018-03-07T11:58:02.354Z,46.34
2018-03-07T12:01:05.700Z,47.93
2018-03-07T12:04:09.003Z,48.23
2018-03-07T12:07:12.299Z,49.27
2018-03-07T12:10:15.638Z,49.40
2018-03-07T12:13:18.882Z,49.90
2018-03-07T12:16:22.187Z,49.22
2018-03-07T12:19:25.523Z,49.18
2018-03-07T12:22:28.786Z,49.22
2018-03-07T12:25:32.101Z,49.46
2018-03-07T12:28:35.669Z,51.40
2018-03-07T12:31:38.978Z,50.17
2018-03-07T12:34:42.180Z,49.57
2018-03-07T12:37:45.469Z,49.73
2018-03-07T12:40:48.713Z,49.16
2018-03-07T12:43:51.966Z,48.73
2018-03-07T12:46:55.186Z,48.05
2018-03-07T12:49:58.550Z,48.56
2018-03-07T12:53:01.857Z,48.82
2018-03-07T12:56:05.437Z,48.57
2018-03-07T12:59:08.653Z,48.59
2018-03-07T13:02:12.830Z,49.03
2018-03-07T13:05:16.812Z,48.03
2018-03-07T13:08:27.880Z,47.86
2018-03-07T13:11:31.454Z,47.74
2018-03-07T13:14:34.928Z,47.83
2018-03-07T13:17:38.560Z,47.41
2018-03-07T13:20:41.901Z,47.62
2018-03-07T13:23:45.160Z,47.96
2018-03-07T13:26:48.365Z,48.45
2018-03-07T13:29:52.584Z,48.18
2018-03-07T13:32:55.886Z,47.71
2018-03-07T13:36:00.314Z,48.08
2018-03-07T13:39:03.575Z,48.38
2018-03-07T13:42:06.850Z,47.85
2018-03-07T13:45:10.019Z,48.04
2018-03-07T13:48:13.356Z,48.07
2018-03-07T13:51:16.729Z,48.96
2018-03-07T13:54:19.988Z,48.62
2018-03-07T13:57:23.285Z,48.36
2018-03-07T14:00:26.598Z,48.93
2018-03-07T14:03:29.905Z,48.06
2018-03-07T14:06:33.126Z,47.63
2018-03-07T14:09:36.323Z,47.35
2018-03-07T14:12:39.692Z,47.33
2018-03-07T14:15:43.017Z,46.93
2018-03-07T14:18:47.027Z,45.70
2018-03-07T14:21:50.571Z,45.90
2018-03-07T14:24:53.835Z,46.94
2018-03-07T14:27:57.084Z,46.68
2018-03-07T14:31:00.455Z,47.46
2018-03-07T14:34:03.722Z,48.18
2018-03-07T14:37:06.941Z,48.47
2018-03-07T14:40:10.129Z,48.17
2018-03-07T14:43:13.336Z,47.26
2018-03-07T14:46:17.649Z,46.31
2018-03-07T14:49:21.127Z,45.48
2018-03-07T14:52:24.652Z,45.32
2018-03-07T14:55:28.072Z,44.58
2018-03-07T14:58:32.639Z,44.62
2018-03-07T15:01:35.894Z,44.27
2018-03-07T15:04:39.133Z,45.61
2018-03-07T15:07:46.094Z,46.07
2018-03-07T15:10:52.966Z,47.15
2018-03-07T15:13:56.207Z,47.21
2018-03-07T15:16:59.576Z,47.99
2018-03-07T15:20:02.906Z,50.25
2018-03-07T15:23:06.328Z,50.94
2018-03-07T15:26:09.580Z,53.21
2018-03-07T15:29:12.920Z,58.20
2018-03-07T15:32:16.192Z,61.59
2018-03-07T15:35:19.491Z,63.32
2018-03-07T15:38:22.799Z,64.82
2018-03-07T15:41:26.062Z,62.64
2018-03-07T15:44:29.487Z,60.99
2018-03-07T15:47:32.888Z,60.71
2018-03-07T15:50:36.777Z,60.28
2018-03-07T15:53:40.077Z,60.89
2018-03-07T15:56:43.393Z,61.02
2018-03-07T15:59:46.582Z,60.96
2018-03-07T16:02:49.917Z,60.19
2018-03-07T16:05:53.083Z,59.57
2018-03-07T16:08:56.242Z,59.45
2018-03-07T16:11:59.776Z,60.82
2018-03-07T16:15:03.086Z,60.38
2018-03-07T16:18:06.906Z,61.07
2018-03-07T16:21:10.116Z,61.78
2018-03-07T16:24:13.474Z,62.40
2018-03-07T16:27:16.813Z,62.51
2018-03-07T16:30:20.067Z,62.74
2018-03-07T16:33:23.907Z,62.83
2018-03-07T16:36:27.336Z,63.21
2018-03-07T16:39:30.642Z,63.46
2018-03-07T16:42:33.968Z,63.78
2018-03-07T16:45:37.416Z,63.67
2018-03-07T16:48:40.678Z,64.81
2018-03-07T16:51:43.984Z,65.38
2018-03-07T16:54:47.343Z,65.49
2018-03-07T16:57:50.636Z,65.88
2018-03-07T17:00:54.036Z,65.81
2018-03-07T17:03:57.263Z,65.95
2018-03-07T17:07:00.569Z,65.74
2018-03-07T17:10:04.377Z,65.43
2018-03-07T17:13:07.804Z,65.40
2018-03-07T17:16:11.056Z,65.54
2018-03-07T17:19:14.876Z,65.81
2018-03-07T17:22:18.695Z,65.38
2018-03-07T17:25:22.132Z,65.94
2018-03-07T17:28:25.867Z,65.46
2018-03-07T17:31:29.367Z,65.81
2018-03-07T17:34:33.033Z,65.49
2018-03-07T17:37:36.467Z,65.08
2018-03-07T17:40:39.853Z,65.49
2018-03-07T17:43:43.127Z,66.20
2018-03-07T17:46:47.012Z,66.20
2018-03-07T17:49:50.288Z,66.09
2018-03-07T17:52:53.507Z,66.09
2018-03-07T17:55:56.847Z,66.77
2018-03-07T17:59:00.240Z,66.83
2018-03-07T18:02:03.513Z,66.80
2018-03-07T18:05:06.831Z,67.02
2018-03-07T18:08:10.199Z,66.79
2018-03-07T18:11:13.673Z,67.36
2018-03-07T18:14:16.998Z,68.60
2018-03-07T18:17:20.682Z,69.18
2018-03-07T18:20:24.875Z,69.87
2018-03-07T18:23:28.504Z,70.09
2018-03-07T18:26:32.410Z,70.38
2018-03-07T18:29:35.848Z,70.37
2018-03-07T18:32:39.652Z,70.74
2018-03-07T18:35:44.660Z,71.83
2018-03-07T18:38:48.024Z,72.10
2018-03-07T18:41:51.410Z,72.32
2018-03-07T18:44:54.615Z,71.71
2018-03-07T18:47:57.906Z,72.09
2018-03-07T18:51:01.296Z,72.17
2018-03-07T18:54:04.703Z,71.71
2018-03-07T18:57:08.004Z,71.65
2018-03-07T19:00:12.185Z,71.27
2018-03-07T19:03:15.687Z,70.89
2018-03-07T19:06:20.023Z,70.53
2018-03-07T19:09:23.881Z,70.89
2018-03-07T19:12:29.310Z,70.97
2018-03-07T19:15:33.220Z,71.13
2018-03-07T19:18:37.622Z,71.39
2018-03-07T19:21:41.547Z,71.13
2018-03-07T19:24:45.778Z,71.79
2018-03-07T19:27:49.821Z,71.89
2018-03-07T19:30:53.160Z,71.73
2018-03-07T19:33:57.882Z,71.87
2018-03-07T19:37:03.050Z,71.46
2018-03-07T19:40:06.226Z,71.95
2018-03-07T19:43:09.537Z,72.15
2018-03-07T19:46:12.839Z,72.47
2018-03-07T19:49:16.182Z,72.64
2018-03-07T19:52:19.531Z,72.21
2018-03-07T19:55:22.752Z,72.30
2018-03-07T19:58:26.001Z,72.56
2018-03-07T20:01:29.416Z,72.44
2018-03-07T20:04:34.076Z,72.37
2018-03-07T20:07:38.665Z,72.63
2018-03-07T20:10:42.198Z,72.44
2018-03-07T20:13:46.931Z,72.99
2018-03-07T20:16:51.126Z,73.24
2018-03-07T20:19:54.661Z,73.39
2018-03-07T20:22:58.297Z,73.55
2018-03-07T20:26:02.145Z,73.75
2018-03-07T20:29:07.242Z,73.78
2018-03-07T20:32:10.782Z,73.82
2018-03-07T20:35:14.619Z,73.75
2018-03-07T20:38:18.851Z,73.80
2018-03-07T20:41:22.283Z,73.50
2018-03-07T20:44:26.538Z,73.30
2018-03-07T20:47:30.590Z,73.10
2018-03-07T20:50:34.351Z,72.69
2018-03-07T20:53:37.600Z,72.72
2018-03-07T20:56:41.582Z,72.62
2018-03-07T20:59:48.272Z,72.45
2018-03-07T21:02:52.841Z,72.18
2018-03-07T21:05:57.321Z,72.23
2018-03-07T21:09:01.609Z,72.25
2018-03-07T21:12:05.667Z,72.46
2018-03-07T21:15:10.075Z,72.83
2018-03-07T21:18:13.334Z,73.07
2018-03-07T21:21:17.243Z,73.33
2018-03-07T21:24:21.150Z,73.56
2018-03-07T21:27:24.675Z,73.90
2018-03-07T21:30:28.785Z,73.93
2018-03-07T21:33:32.386Z,74.18
2018-03-07T21:36:35.983Z,74.52
2018-03-07T21:39:39.689Z,74.61
2018-03-07T21:42:42.925Z,74.51
2018-03-07T21:45:46.243Z,74.14
2018-03-07T21:48:49.492Z,74.02
2018-03-07T21:51:52.797Z,74.50
2018-03-07T21:54:56.073Z,74.67
2018-03-07T21:57:59.311Z,75.08
2018-03-07T22:01:02.634Z,75.81
2018-03-07T22:04:05.921Z,76.27
2018-03-07T22:07:09.171Z,76.53
2018-03-07T22:10:12.469Z,76.47
2018-03-07T22:13:16.396Z,76.48
2018-03-07T22:16:19.749Z,76.43
2018-03-07T22:19:23.008Z,76.67
2018-03-07T22:22:26.351Z,76.72
2018-03-07T22:25:29.574Z,76.75
2018-03-07T22:28:32.944Z,76.21
2018-03-07T22:31:36.304Z,76.43
2018-03-07T22:34:39.637Z,76.85
2018-03-07T22:37:42.916Z,76.97
2018-03-07T22:40:46.285Z,77.04
2018-03-07T22:43:49.603Z,76.81
2018-03-07T22:46:53.017Z,76.63
2018-03-07T22:49:56.428Z,76.48
2018-03-07T22:52:59.628Z,76.50
2018-03-07T22:56:02.983Z,76.10
2018-03-07T22:59:06.230Z,75.91
2018-03-07T23:02:09.548Z,75.75
2018-03-07T23:05:12.779Z,75.91
2018-03-07T23:08:16.022Z,75.97
2018-03-07T23:11:19.280Z,75.81
2018-03-07T23:14:23.089Z,75.59
2018-03-07T23:17:26.234Z,75.67
2018-03-07T23:20:29.416Z,75.38
2018-03-07T23:23:32.672Z,75.73
2018-03-07T23:26:35.888Z,75.99
2018-03-07T23:29:39.039Z,76.04
2018-03-07T23:32:42.196Z,75.74
2018-03-07T23:35:45.440Z,75.94
2018-03-07T23:38:48.727Z,75.98
2018-03-07T23:41:52.051Z,75.79
2018-03-07T23:44:55.378Z,75.58
2018-03-07T23:47:58.647Z,75.62
2018-03-07T23:51:02.340Z,75.67
2018-03-07T23:54:05.687Z,75.60
2018-03-07T23:57:08.898Z,74.92
